createdAt,value
2019-04-27T00:00:24.410Z,587.7
2019-04-27T00:01:26.844Z,588.1
2019-04-27T00:02:29.286Z,588.2
2019-04-27T00:04:37.645Z,588.5
2019-04-27T00:05:40.075Z,588.9
2019-04-27T00:07:47.493Z,588.8
2019-04-27T00:08:49.908Z,589.5
2019-04-27T00:13:08.127Z,589
2019-04-27T00:15:17.516Z,589.3
2019-04-27T00:16:19.670Z,589.7
2019-04-27T00:18:27.088Z,589.2
2019-04-27T00:20:35.186Z,589.4
2019-04-27T00:21:37.358Z,589.6
2019-04-27T00:22:39.505Z,589.3
2019-04-27T00:23:43.406Z,589.4
2019-04-27T00:24:46.173Z,589.5
2019-04-27T00:25:48.316Z,589.8
2019-04-27T00:26:50.732Z,589.7
2019-04-27T00:27:54.648Z,589.6
2019-04-27T00:28:57.084Z,589.1
2019-04-27T00:29:59.498Z,589.3
2019-04-27T00:31:03.755Z,589.3
2019-04-27T00:32:06.377Z,589.2
2019-04-27T00:33:08.801Z,589.4
2019-04-27T00:34:11.224Z,589.2
2019-04-27T00:35:15.146Z,589.1
2019-04-27T00:36:17.569Z,589.5
2019-04-27T00:37:19.999Z,589.6
2019-04-27T00:38:24.247Z,589.5
2019-04-27T00:39:26.395Z,589.3
2019-04-27T00:40:28.271Z,589.8
2019-04-27T00:41:30.427Z,589.6
2019-04-27T00:42:35.979Z,589.9
2019-04-27T00:43:37.849Z,589.6
2019-04-27T00:44:40.270Z,589.6
2019-04-27T00:45:44.337Z,589.6
2019-04-27T00:46:46.500Z,589.7
2019-04-27T00:48:55.367Z,589.8
2019-04-27T00:49:57.788Z,589.6
2019-04-27T00:51:00.206Z,589.9
2019-04-27T00:52:03.562Z,589.8
2019-04-27T00:53:05.831Z,589.9
2019-04-27T00:54:07.696Z,589.9
2019-04-27T00:55:10.113Z,590
2019-04-27T00:56:13.796Z,589.8
2019-04-27T00:57:16.335Z,590
2019-04-27T00:58:18.830Z,590
2019-04-27T00:59:21.240Z,590.1
2019-04-27T01:00:25.427Z,590
2019-04-27T01:01:27.579Z,589.7
2019-04-27T01:02:29.720Z,589.6
2019-04-27T01:03:33.483Z,589.9
2019-04-27T01:04:36.015Z,590
2019-04-27T01:05:38.438Z,590
2019-04-27T01:06:40.858Z,589.9
2019-04-27T01:07:44.935Z,589.7
2019-04-27T01:08:47.347Z,589.8
2019-04-27T01:09:49.790Z,589.7
2019-04-27T01:10:53.605Z,589.9
2019-04-27T01:11:56.173Z,590
2019-04-27T01:12:58.599Z,589.6
2019-04-27T01:14:00.758Z,590
2019-04-27T01:15:05.106Z,589.5
2019-04-27T01:17:15.942Z,590
2019-04-27T01:18:19.952Z,589.9
2019-04-27T01:19:22.370Z,589.9
2019-04-27T01:20:24.250Z,590.1
2019-04-27T01:21:26.426Z,590.3
2019-04-27T01:22:30.372Z,589.9
2019-04-27T01:23:32.557Z,590.3
2019-04-27T01:24:34.455Z,590.7
2019-04-27T01:25:36.870Z,590.5
2019-04-27T01:26:40.643Z,590.7
2019-04-27T01:27:42.507Z,590.9
2019-04-27T01:28:44.644Z,590.6
2019-04-27T01:29:47.070Z,590.7
2019-04-27T01:30:50.652Z,590.6
2019-04-27T01:31:52.562Z,590.5
2019-04-27T01:32:54.988Z,590.3
2019-04-27T01:33:58.952Z,590.3
2019-04-27T01:35:00.974Z,590.4
2019-04-27T01:36:03.400Z,589.8
2019-04-27T01:37:05.831Z,590.1
2019-04-27T01:38:09.961Z,589.9
2019-04-27T01:39:12.121Z,590.1
2019-04-27T01:40:14.279Z,589.7
2019-04-27T01:41:15.889Z,590.3
2019-04-27T01:42:20.238Z,589.5
2019-04-27T01:43:22.649Z,589.7
2019-04-27T01:44:25.061Z,589.8
2019-04-27T01:45:29.491Z,590.1
2019-04-27T01:46:31.627Z,590
2019-04-27T01:47:33.499Z,589.8
2019-04-27T01:48:35.936Z,589.9
2019-04-27T01:49:40.184Z,589.4
2019-04-27T01:50:42.593Z,589.5
2019-04-27T01:51:45.018Z,589.3
2019-04-27T01:52:49.123Z,589
2019-04-27T01:53:51.277Z,588.9
2019-04-27T01:54:53.142Z,589
2019-04-27T01:55:55.556Z,589.5
2019-04-27T01:58:04.134Z,589.4
2019-04-27T01:59:06.553Z,589.4
2019-04-27T02:00:10.547Z,589.4
2019-04-27T02:01:12.964Z,589.4
2019-04-27T02:02:15.387Z,589.7
2019-04-27T02:03:17.809Z,589.9
2019-04-27T02:04:21.346Z,589.5
2019-04-27T02:05:23.490Z,589.5
2019-04-27T02:06:24.530Z,589.7
2019-04-27T02:07:26.701Z,589.7
2019-04-27T02:08:30.595Z,589.9
2019-04-27T02:09:33.030Z,589.9
2019-04-27T02:10:35.451Z,589.9
2019-04-27T02:11:39.824Z,590.1
2019-04-27T02:13:50.927Z,590.1
2019-04-27T02:14:53.450Z,590.3
2019-04-27T02:15:55.614Z,590.4
2019-04-27T02:16:59.307Z,590.4
2019-04-27T02:18:01.646Z,590.5
2019-04-27T02:19:03.794Z,590.5
2019-04-27T02:20:05.942Z,590.7
2019-04-27T02:21:10.044Z,590.8
2019-04-27T02:22:11.908Z,590.6
2019-04-27T02:23:14.327Z,590.9
2019-04-27T02:24:16.480Z,590.8
2019-04-27T02:25:22.182Z,591.2
2019-04-27T02:26:24.608Z,591.1
2019-04-27T02:27:26.730Z,591.5
2019-04-27T02:28:30.482Z,591.6
2019-04-27T02:29:32.913Z,591.6
2019-04-27T02:30:35.332Z,591.9
2019-04-27T02:32:44.184Z,591.9
2019-04-27T02:33:46.597Z,592
2019-04-27T02:35:53.669Z,592.6
2019-04-27T02:36:56.101Z,592.6
2019-04-27T02:39:04.464Z,593
2019-04-27T02:40:06.613Z,593.3
2019-04-27T02:42:13.764Z,592.7
2019-04-27T02:43:15.919Z,592.8
2019-04-27T02:45:24.489Z,593.1
2019-04-27T02:46:29.360Z,593.1
2019-04-27T02:47:33.805Z,592.9
2019-04-27T02:49:42.591Z,593.2
2019-04-27T02:50:44.755Z,593.1
2019-04-27T02:52:53.596Z,593.4
2019-04-27T02:53:56.046Z,593
2019-04-27T02:56:03.456Z,592.9
2019-04-27T02:57:05.604Z,592.9
2019-04-27T02:59:14.493Z,592.7
2019-04-27T03:00:16.930Z,592.7
2019-04-27T03:02:24.277Z,593.3
2019-04-27T03:03:26.435Z,593
2019-04-27T03:05:34.262Z,592.7
2019-04-27T03:06:36.423Z,593.1
2019-04-27T03:08:44.854Z,593.1
2019-04-27T03:09:47.295Z,593.5
2019-04-27T03:11:54.706Z,593.4
2019-04-27T03:12:56.591Z,593.4
2019-04-27T03:15:04.005Z,593.3
2019-04-27T03:16:06.434Z,593.1
2019-04-27T03:18:14.048Z,592.9
2019-04-27T03:20:22.295Z,592.7
2019-04-27T03:21:24.733Z,592.5
2019-04-27T03:22:29.253Z,592.3
2019-04-27T03:23:33.775Z,592.2
2019-04-27T03:24:36.195Z,592.2
2019-04-27T03:26:44.563Z,591.5
2019-04-27T03:27:46.697Z,591.1
2019-04-27T03:29:54.573Z,591.3
2019-04-27T03:30:56.152Z,591.7
2019-04-27T03:33:05.555Z,591.8
2019-04-27T03:35:15.651Z,592.2
2019-04-27T03:37:22.719Z,592.5
2019-04-27T03:38:24.850Z,592.4
2019-04-27T03:39:26.982Z,592.4
2019-04-27T03:41:34.110Z,592.3
2019-04-27T03:43:42.316Z,592.5
2019-04-27T03:44:44.755Z,592.4
2019-04-27T03:45:49.703Z,592.4
2019-04-27T03:46:53.808Z,592.2
2019-04-27T03:47:55.694Z,592.5
2019-04-27T03:50:03.802Z,592.4
2019-04-27T03:51:05.964Z,592.4
2019-04-27T03:53:13.857Z,592.2
2019-04-27T03:54:16.014Z,592.3
2019-04-27T03:56:23.624Z,592.4
2019-04-27T03:57:26.047Z,592.5
2019-04-27T03:59:34.474Z,592.5
2019-04-27T04:00:36.891Z,592.1
2019-04-27T04:02:43.760Z,592.6
2019-04-27T04:03:46.186Z,592.2
2019-04-27T04:05:54.409Z,592.2
2019-04-27T04:06:56.544Z,592.7
2019-04-27T04:09:04.644Z,592.2
2019-04-27T04:10:07.070Z,592.6
2019-04-27T04:12:14.478Z,592.4
2019-04-27T04:13:16.896Z,592.1
2019-04-27T04:15:24.518Z,592.7
2019-04-27T04:16:29.353Z,592.8
2019-04-27T04:17:33.592Z,592.3
2019-04-27T04:18:36.021Z,592.2
2019-04-27T04:20:42.894Z,592.4
2019-04-27T04:21:45.349Z,592.1
2019-04-27T04:22:47.786Z,592.5
2019-04-27T04:23:51.447Z,592.2
2019-04-27T04:24:53.592Z,592.1
2019-04-27T04:25:55.757Z,591.8
2019-04-27T04:28:03.864Z,592.6
2019-04-27T04:29:06.002Z,591.9
2019-04-27T04:31:15.819Z,591.5
2019-04-27T04:33:23.435Z,591.7
2019-04-27T04:34:25.864Z,591.8
2019-04-27T04:35:32.434Z,591.9
2019-04-27T04:36:34.917Z,591.9
2019-04-27T04:37:39.162Z,591.9
2019-04-27T04:38:43.964Z,591.9
2019-04-27T04:40:52.831Z,592.2
2019-04-27T04:41:55.255Z,592.4
2019-04-27T04:43:00.264Z,592.1
2019-04-27T04:44:04.565Z,592.3
2019-04-27T04:45:06.715Z,592.4
2019-04-27T04:47:14.120Z,592
2019-04-27T04:48:16.016Z,591.9
2019-04-27T04:50:24.504Z,592.3
2019-04-27T04:51:26.926Z,592
2019-04-27T04:52:31.465Z,592.2
2019-04-27T04:53:33.891Z,591.9
2019-04-27T04:54:36.319Z,591.9
2019-04-27T04:56:43.453Z,591.7
2019-04-27T04:57:45.887Z,591.9
2019-04-27T04:59:53.999Z,591.7
2019-04-27T05:00:56.427Z,591.6
2019-04-27T05:03:04.515Z,591.9
2019-04-27T05:04:06.933Z,591.7
2019-04-27T05:05:10.973Z,591.5
2019-04-27T05:06:13.416Z,591.9
2019-04-27T05:07:15.840Z,592.1
2019-04-27T05:08:19.725Z,591.7
2019-04-27T05:09:22.154Z,591.4
2019-04-27T05:10:24.291Z,591.4
2019-04-27T05:11:26.444Z,591.3
2019-04-27T05:12:30.121Z,591.5
2019-04-27T05:13:32.542Z,591.4
2019-04-27T05:14:34.690Z,591.5
2019-04-27T05:15:37.127Z,591.5
2019-04-27T05:16:41.046Z,591.4
2019-04-27T05:17:43.472Z,591.5
2019-04-27T05:18:45.344Z,591.4
2019-04-27T05:19:48.931Z,591.4
2019-04-27T05:20:51.553Z,591
2019-04-27T05:21:53.424Z,591.3
2019-04-27T05:22:55.843Z,590.9
2019-04-27T05:25:03.948Z,591
2019-04-27T05:26:06.104Z,590.6
2019-04-27T05:27:10.674Z,590.5
2019-04-27T05:28:13.099Z,590.7
2019-04-27T05:29:15.524Z,590.5
2019-04-27T05:30:17.134Z,590.7
2019-04-27T05:31:21.138Z,590.5
2019-04-27T05:32:23.274Z,590.8
2019-04-27T05:33:25.501Z,590.7
2019-04-27T05:34:29.841Z,590.5
2019-04-27T05:35:31.990Z,590.4
2019-04-27T05:36:34.404Z,590.2
2019-04-27T05:37:38.794Z,590.4
2019-04-27T05:39:46.362Z,590.4
2019-04-27T05:40:50.507Z,590.2
2019-04-27T05:41:52.095Z,590.3
2019-04-27T05:45:06.813Z,590
2019-04-27T05:47:15.197Z,590.3
2019-04-27T05:48:17.463Z,590.6
2019-04-27T05:49:22.165Z,590.5
2019-04-27T05:52:34.554Z,590
2019-04-27T05:53:36.698Z,590
2019-04-27T05:54:40.554Z,590.4
2019-04-27T05:55:42.700Z,590.3
2019-04-27T05:56:44.844Z,590.5
2019-04-27T05:57:46.720Z,589.9
2019-04-27T05:59:53.875Z,589.8
2019-04-27T06:00:56.018Z,589.8
2019-04-27T06:02:00.466Z,589.5
2019-04-27T06:03:02.894Z,589.5
2019-04-27T06:04:05.054Z,589.3
2019-04-27T06:05:09.301Z,589.3
2019-04-27T06:06:11.484Z,589.1
2019-04-27T06:07:13.363Z,589.8
2019-04-27T06:08:15.507Z,589.6
2019-04-27T06:09:18.874Z,589.6
2019-04-27T06:10:21.856Z,589.3
2019-04-27T06:11:24.281Z,589.5
2019-04-27T06:12:26.428Z,589.8
2019-04-27T06:14:33.553Z,589.9
2019-04-27T06:15:35.702Z,589.6
2019-04-27T06:16:39.831Z,589.4
2019-04-27T06:17:42.258Z,589.7
2019-04-27T06:18:44.892Z,589.7
2019-04-27T06:19:46.777Z,589.9
2019-04-27T06:21:54.491Z,589.5
2019-04-27T06:22:58.635Z,589.7
2019-04-27T06:24:00.955Z,589.4
2019-04-27T06:25:03.098Z,589.6
2019-04-27T06:26:05.524Z,589.4
2019-04-27T06:27:09.215Z,589.3
2019-04-27T06:28:11.271Z,589.6
2019-04-27T06:29:13.424Z,589.2
2019-04-27T06:30:15.293Z,589.7
2019-04-27T06:31:19.175Z,589.5
2019-04-27T06:32:21.975Z,589.4
2019-04-27T06:35:34.939Z,589.4
2019-04-27T06:36:39.197Z,589.6
2019-04-27T06:37:40.783Z,589.7
2019-04-27T06:38:43.210Z,589.6
2019-04-27T06:39:45.625Z,589.3
2019-04-27T06:40:48.858Z,589.5
2019-04-27T06:41:51.140Z,589.2
2019-04-27T06:42:54.019Z,589.5
2019-04-27T06:43:56.179Z,589.4
2019-04-27T06:45:00.808Z,589.3
2019-04-27T06:46:03.389Z,589.2
2019-04-27T06:47:05.543Z,589.1
2019-04-27T06:48:10.064Z,588.8
2019-04-27T06:49:13.147Z,589.1
2019-04-27T06:50:15.575Z,589
2019-04-27T06:51:19.413Z,589.5
2019-04-27T06:52:21.725Z,589.5
2019-04-27T06:53:24.353Z,589.5
2019-04-27T06:54:26.497Z,589.5
2019-04-27T06:55:30.727Z,589
2019-04-27T06:56:33.965Z,589.6
2019-04-27T06:57:36.397Z,589.5
2019-04-27T06:59:43.641Z,589.4
2019-04-27T07:00:46.081Z,589.3
2019-04-27T07:01:50.271Z,589.8
2019-04-27T07:04:00.827Z,589.6
2019-04-27T07:05:03.183Z,589.3
2019-04-27T07:06:05.623Z,589.4
2019-04-27T07:07:09.728Z,589.4
2019-04-27T07:08:12.009Z,589.4
2019-04-27T07:09:14.550Z,589.3
2019-04-27T07:10:20.767Z,589.3
2019-04-27T07:11:25.955Z,589.7
2019-04-27T07:12:30.741Z,589.6
2019-04-27T07:13:33.179Z,589.7
2019-04-27T07:14:35.379Z,589.8
2019-04-27T07:15:39.237Z,589.5
2019-04-27T07:16:41.382Z,589.4
2019-04-27T07:17:43.896Z,589.3
2019-04-27T07:18:46.319Z,589.9
2019-04-27T07:19:50.368Z,589.6
2019-04-27T07:20:52.507Z,589.6
2019-04-27T07:21:55.013Z,589.7
2019-04-27T07:22:57.185Z,589.2
2019-04-27T07:24:01.553Z,589.9
2019-04-27T07:25:03.712Z,589.8
2019-04-27T07:26:05.901Z,589.7
2019-04-27T07:27:09.842Z,589.6
2019-04-27T07:28:12.265Z,589.6
2019-04-27T07:29:14.743Z,590.3
2019-04-27T07:30:18.776Z,590.2
2019-04-27T07:31:21.301Z,590
2019-04-27T07:32:24.050Z,590.2
2019-04-27T07:33:25.923Z,590.1
2019-04-27T07:35:33.807Z,590
2019-04-27T07:36:36.228Z,590.2
2019-04-27T07:37:40.257Z,590.6
2019-04-27T07:38:42.683Z,590.5
2019-04-27T07:39:44.932Z,590
2019-04-27T07:40:49.279Z,590.3
2019-04-27T07:41:54.525Z,590.2
2019-04-27T07:43:01.933Z,590.1
2019-04-27T07:45:16.815Z,590.7
2019-04-27T07:46:23.030Z,590.4
2019-04-27T07:47:29.355Z,590.8
2019-04-27T07:48:37.583Z,590.7
2019-04-27T07:49:43.656Z,591.2
2019-04-27T07:50:50.869Z,591.1
2019-04-27T07:51:53.657Z,591
2019-04-27T07:52:56.097Z,591.2
2019-04-27T07:54:00.461Z,591.1
2019-04-27T07:55:02.621Z,591.1
2019-04-27T07:56:05.275Z,591.1
2019-04-27T07:57:07.420Z,591.3
2019-04-27T07:58:10.715Z,591.6
2019-04-27T07:59:13.146Z,591.8
2019-04-27T08:00:15.452Z,591.2
2019-04-27T08:01:18.858Z,591.8
2019-04-27T08:02:21.683Z,591.5
2019-04-27T08:03:24.166Z,591.3
2019-04-27T08:04:29.791Z,591.3
2019-04-27T08:05:32.072Z,591.6
2019-04-27T08:06:34.485Z,591.3
2019-04-27T08:07:36.744Z,591.5
2019-04-27T08:08:41.037Z,591.8
2019-04-27T08:09:43.457Z,592
2019-04-27T08:11:51.261Z,591.5
2019-04-27T08:12:53.681Z,592
2019-04-27T08:13:56.445Z,591.8
2019-04-27T08:15:00.532Z,591.6
2019-04-27T08:16:02.947Z,591.4
2019-04-27T08:17:05.097Z,591.7
2019-04-27T08:18:09.410Z,591.8
2019-04-27T08:19:11.952Z,592
2019-04-27T08:20:14.396Z,591.7
2019-04-27T08:21:16.330Z,591.7
2019-04-27T08:22:20.534Z,591.9
2019-04-27T08:23:22.953Z,592.3
2019-04-27T08:24:25.419Z,592
2019-04-27T08:26:34.053Z,591.7
2019-04-27T08:27:36.480Z,592.2
2019-04-27T08:28:40.582Z,592.5
2019-04-27T08:29:42.877Z,592.7
2019-04-27T08:30:45.185Z,592.6
2019-04-27T08:31:49.542Z,592.6
2019-04-27T08:32:51.696Z,592.9
2019-04-27T08:33:53.853Z,593
2019-04-27T08:34:56.319Z,593.2
2019-04-27T08:36:00.503Z,593.4
2019-04-27T08:37:03.084Z,593
2019-04-27T08:38:05.511Z,593.1
2019-04-27T08:39:09.841Z,593.1
2019-04-27T08:40:12.088Z,593.5
2019-04-27T08:41:13.948Z,593.4
2019-04-27T08:42:16.456Z,593.5
2019-04-27T08:43:21.241Z,593.6
2019-04-27T08:44:23.419Z,593.3
2019-04-27T08:45:25.933Z,593.9
2019-04-27T08:46:30.107Z,594.1
2019-04-27T08:47:32.418Z,593.4
2019-04-27T08:49:41.610Z,593.6
2019-04-27T08:50:43.988Z,593.6
2019-04-27T08:52:52.589Z,593.5
2019-04-27T08:53:54.477Z,593.4
2019-04-27T08:54:57.012Z,593.7
2019-04-27T08:56:01.184Z,594
2019-04-27T08:57:03.727Z,594
2019-04-27T08:58:05.591Z,594.2
2019-04-27T08:59:09.525Z,594.1
2019-04-27T09:00:11.783Z,594.7
2019-04-27T09:01:13.662Z,594.4
2019-04-27T09:02:15.806Z,594.5
2019-04-27T09:03:19.886Z,594.7
2019-04-27T09:04:22.422Z,594.9
2019-04-27T09:05:24.859Z,594.7
2019-04-27T09:06:28.867Z,594.9
2019-04-27T09:07:34.102Z,594.7
2019-04-27T09:08:36.266Z,595.5
2019-04-27T09:09:40.651Z,595.5
2019-04-27T09:10:43.525Z,595.4
2019-04-27T09:11:46.167Z,595.6
2019-04-27T09:13:55.180Z,595.7
2019-04-27T09:14:59.026Z,595.7
2019-04-27T09:16:02.497Z,596
2019-04-27T09:17:04.835Z,596.1
2019-04-27T09:18:08.828Z,596.2
2019-04-27T09:19:11.522Z,596.4
2019-04-27T09:20:13.975Z,596.6
2019-04-27T09:21:16.551Z,596.6
2019-04-27T09:23:23.770Z,596
2019-04-27T09:24:25.923Z,596.4
2019-04-27T09:25:30.033Z,596.5
2019-04-27T09:26:32.679Z,596.5
2019-04-27T09:27:34.847Z,596.5
2019-04-27T09:28:39.274Z,596.1
2019-04-27T09:29:41.683Z,596.8
2019-04-27T09:30:44.105Z,596.6
2019-04-27T09:31:46.272Z,596.4
2019-04-27T09:32:48.420Z,596.7
2019-04-27T09:33:50.847Z,596.7
2019-04-27T09:34:52.982Z,597.2
2019-04-27T09:35:57.206Z,597.3
2019-04-27T09:36:59.632Z,597
2019-04-27T09:38:02.076Z,596.9
2019-04-27T09:39:04.502Z,596.9
2019-04-27T09:40:09.673Z,596.4
2019-04-27T09:41:12.348Z,597
2019-04-27T09:42:14.239Z,597
2019-04-27T09:43:17.843Z,597
2019-04-27T09:44:19.991Z,597
2019-04-27T09:45:22.302Z,597
2019-04-27T09:46:26.430Z,597.1
2019-04-27T09:47:29.151Z,597.8
2019-04-27T09:48:31.286Z,597.4
2019-04-27T09:49:33.443Z,597.1
2019-04-27T09:51:40.857Z,597
2019-04-27T09:52:43.432Z,597.5
2019-04-27T09:53:47.691Z,597.1
2019-04-27T09:54:50.235Z,597.4
2019-04-27T09:55:52.933Z,597.4
2019-04-27T09:56:57.042Z,597.7
2019-04-27T09:57:58.933Z,597.6
2019-04-27T09:59:01.079Z,597.7
2019-04-27T10:00:03.037Z,597.6
2019-04-27T10:01:07.116Z,597.6
2019-04-27T10:02:09.788Z,597.7
2019-04-27T10:03:12.024Z,597.9
2019-04-27T10:05:20.713Z,598
2019-04-27T10:06:23.182Z,598.2
2019-04-27T10:07:28.228Z,598
2019-04-27T10:08:30.375Z,598.6
2019-04-27T10:09:33.155Z,598.1
2019-04-27T10:10:37.079Z,598.6
2019-04-27T10:11:38.769Z,598.3
2019-04-27T10:12:40.663Z,598.7
2019-04-27T10:13:43.176Z,598.9
2019-04-27T10:15:50.648Z,598.8
2019-04-27T10:16:53.222Z,598.9
2019-04-27T10:17:59.070Z,599
2019-04-27T10:19:01.265Z,598.9
2019-04-27T10:20:03.420Z,599.1
2019-04-27T10:21:07.836Z,599.4
2019-04-27T10:22:10.451Z,599.7
2019-04-27T10:23:13.253Z,599.2
2019-04-27T10:24:17.848Z,599.7
2019-04-27T10:25:20.000Z,600
2019-04-27T10:26:21.850Z,599.7
2019-04-27T10:27:26.379Z,600.3
2019-04-27T10:28:28.297Z,600
2019-04-27T10:29:29.919Z,599.7
2019-04-27T10:30:32.157Z,599.7
2019-04-27T10:31:34.314Z,599.8
2019-04-27T10:32:38.152Z,600
2019-04-27T10:33:40.044Z,599.8
2019-04-27T10:34:41.646Z,599.9
2019-04-27T10:35:44.167Z,600.1
2019-04-27T10:36:48.201Z,600.5
2019-04-27T10:37:51.253Z,600.3
2019-04-27T10:38:55.459Z,600.8
2019-04-27T10:39:58.121Z,601
2019-04-27T10:41:00.338Z,601.2
2019-04-27T10:42:02.809Z,601.1
2019-04-27T10:43:07.315Z,601.7
2019-04-27T10:44:09.223Z,602
2019-04-27T10:45:11.374Z,601.8
2019-04-27T10:46:13.537Z,601.7
2019-04-27T10:47:17.574Z,601.6
2019-04-27T10:48:20.036Z,601.8
2019-04-27T10:49:22.460Z,602
2019-04-27T10:50:26.955Z,601.7
2019-04-27T10:51:29.115Z,601.9
2019-04-27T10:52:31.550Z,602.1
2019-04-27T10:53:35.464Z,602.2
2019-04-27T10:54:38.051Z,602.5
2019-04-27T10:55:40.219Z,602.1
2019-04-27T10:56:42.775Z,602.3
2019-04-27T10:57:45.273Z,602.8
2019-04-27T10:58:47.564Z,603
2019-04-27T10:59:49.702Z,603.2
2019-04-27T11:00:51.863Z,603.7
2019-04-27T11:01:55.858Z,603.7
2019-04-27T11:03:00.382Z,603
2019-04-27T11:04:02.930Z,603.1
2019-04-27T11:05:06.620Z,603.3
2019-04-27T11:06:08.954Z,603.2
2019-04-27T11:07:11.132Z,603.1
2019-04-27T11:08:12.989Z,602.8
2019-04-27T11:09:17.278Z,603.3
2019-04-27T11:10:19.701Z,602.7
2019-04-27T11:11:21.858Z,603.2
2019-04-27T11:12:23.978Z,603.1
2019-04-27T11:13:27.743Z,603.3
2019-04-27T11:14:29.909Z,603.1
2019-04-27T11:15:32.051Z,603.4
2019-04-27T11:17:40.983Z,603.5
2019-04-27T11:18:43.421Z,603.1
2019-04-27T11:19:47.901Z,603.3
2019-04-27T11:20:50.331Z,603.4
2019-04-27T11:21:52.213Z,603.4
2019-04-27T11:24:00.214Z,603
2019-04-27T11:25:02.663Z,603.7
2019-04-27T11:27:10.535Z,602.8
2019-04-27T11:28:12.969Z,603
2019-04-27T11:29:15.433Z,603.1
2019-04-27T11:30:17.613Z,603.1
2019-04-27T11:31:20.049Z,602.8
2019-04-27T11:32:22.480Z,603
2019-04-27T11:33:24.093Z,602.6
2019-04-27T11:34:26.248Z,602.5
2019-04-27T11:35:28.103Z,602.1
2019-04-27T11:36:30.266Z,602.4
2019-04-27T11:37:32.704Z,601.9
2019-04-27T11:38:36.776Z,602.9
2019-04-27T11:39:38.943Z,602.8
2019-04-27T11:40:41.374Z,602.8
2019-04-27T11:41:43.246Z,602.5
2019-04-27T11:42:45.414Z,602.7
2019-04-27T11:43:48.419Z,602.5
2019-04-27T11:44:50.861Z,602.6
2019-04-27T11:45:53.293Z,602.5
2019-04-27T11:46:57.382Z,602.7
2019-04-27T11:47:59.806Z,603.3
2019-04-27T11:49:01.687Z,603.2
2019-04-27T11:50:04.113Z,603.2
2019-04-27T11:52:16.687Z,602.4
2019-04-27T11:54:23.282Z,603.5
2019-04-27T11:55:27.094Z,602.8
2019-04-27T11:56:29.743Z,602.8
2019-04-27T11:57:32.168Z,603.4
2019-04-27T11:59:39.317Z,603.7
2019-04-27T12:00:41.740Z,603.5
2019-04-27T12:01:43.615Z,603.3
2019-04-27T12:02:47.649Z,603.6
2019-04-27T12:03:49.802Z,602.6
2019-04-27T12:04:52.233Z,603.7
2019-04-27T12:05:54.120Z,603.5
2019-04-27T12:06:58.375Z,602.5
2019-04-27T12:08:00.805Z,603.4
2019-04-27T12:09:02.956Z,603
2019-04-27T12:10:07.120Z,602.9
2019-04-27T12:11:09.559Z,602.5
2019-04-27T12:13:17.904Z,602.2
2019-04-27T12:14:20.331Z,602.4
2019-04-27T12:15:22.487Z,601.9
2019-04-27T12:16:26.669Z,601.6
2019-04-27T12:17:30.728Z,602.1
2019-04-27T12:18:33.152Z,602.5
2019-04-27T12:19:37.048Z,602.2
2019-04-27T12:20:38.648Z,602.8
2019-04-27T12:21:40.808Z,602.6
2019-04-27T12:22:43.253Z,602.4
2019-04-27T12:23:47.052Z,602.8
2019-04-27T12:24:49.383Z,602.7
2019-04-27T12:25:51.539Z,603.2
2019-04-27T12:26:55.544Z,602.5
2019-04-27T12:28:00.347Z,602.6
2019-04-27T12:29:02.510Z,602.7
2019-04-27T12:30:06.708Z,602.4
2019-04-27T12:31:11.002Z,602.5
2019-04-27T12:32:13.430Z,602.5
2019-04-27T12:33:15.846Z,602.2
2019-04-27T12:34:18.289Z,602.4
2019-04-27T12:35:20.414Z,602.6
2019-04-27T12:36:22.834Z,602.3
2019-04-27T12:37:26.626Z,602.3
2019-04-27T12:38:30.285Z,602.2
2019-04-27T12:39:32.711Z,602.7
2019-04-27T12:40:37.057Z,602.3
2019-04-27T12:41:39.522Z,602.3
2019-04-27T12:42:42.031Z,602.5
2019-04-27T12:43:46.399Z,602.6
2019-04-27T12:44:48.878Z,602.5
2019-04-27T12:45:51.050Z,602.8
2019-04-27T12:46:53.481Z,602.9
2019-04-27T12:47:57.981Z,602.5
2019-04-27T12:49:00.410Z,603
2019-04-27T12:50:02.882Z,603
2019-04-27T12:51:04.470Z,603.1
2019-04-27T12:52:07.556Z,602.3
2019-04-27T12:53:09.988Z,603
2019-04-27T12:54:12.412Z,602.8
2019-04-27T12:56:20.788Z,603.2
2019-04-27T12:57:23.225Z,603.5
2019-04-27T12:58:27.191Z,602.7
2019-04-27T12:59:29.340Z,603
2019-04-27T13:00:31.845Z,603.3
2019-04-27T13:01:35.926Z,603.1
2019-04-27T13:02:38.489Z,603.3
2019-04-27T13:03:40.906Z,603.3
2019-04-27T13:04:43.060Z,602.2
2019-04-27T13:05:45.190Z,603.4
2019-04-27T13:06:49.026Z,603.1
2019-04-27T13:07:51.246Z,602.9
2019-04-27T13:08:55.622Z,603.6
2019-04-27T13:09:58.122Z,603.8
2019-04-27T13:11:00.549Z,603.4
2019-04-27T13:12:02.409Z,603.9
2019-04-27T13:13:06.763Z,604.1
2019-04-27T13:14:09.177Z,604.2
2019-04-27T13:15:11.602Z,604.6
2019-04-27T13:16:14.042Z,604.6
2019-04-27T13:17:18.064Z,604.9
2019-04-27T13:18:20.489Z,604.2
2019-04-27T13:19:22.931Z,605.3
2019-04-27T13:20:27.033Z,604.2
2019-04-27T13:21:29.198Z,604.9
2019-04-27T13:22:31.642Z,604.9
2019-04-27T13:23:34.072Z,604.6
2019-04-27T13:24:37.701Z,603.6
2019-04-27T13:25:40.553Z,605.1
2019-04-27T13:26:42.752Z,604.5
2019-04-27T13:27:44.915Z,604.5
2019-04-27T13:28:48.439Z,603.9
2019-04-27T13:29:50.570Z,603.7
2019-04-27T13:30:53.031Z,603.5
2019-04-27T13:33:00.675Z,603.3
2019-04-27T13:34:06.718Z,603.7
2019-04-27T13:35:09.144Z,604.1
2019-04-27T13:36:11.571Z,604.4
2019-04-27T13:37:15.670Z,604.5
2019-04-27T13:38:19.994Z,605
2019-04-27T13:39:22.222Z,604.1
2019-04-27T13:40:25.770Z,604.6
2019-04-27T13:42:33.358Z,604.9
2019-04-27T13:43:35.251Z,606
2019-04-27T13:44:37.707Z,606.4
2019-04-27T13:45:39.885Z,606.1
2019-04-27T13:46:42.052Z,606.3
2019-04-27T13:47:43.950Z,606.1
2019-04-27T13:48:47.869Z,606.1
2019-04-27T13:49:49.532Z,605.4
2019-04-27T13:50:51.981Z,607.2
2019-04-27T13:51:57.492Z,607.8
2019-04-27T13:53:00.023Z,606.7
2019-04-27T13:55:07.624Z,607.4
2019-04-27T13:56:09.492Z,606.3
2019-04-27T13:57:11.935Z,608.4
2019-04-27T13:58:14.396Z,607.6
2019-04-27T13:59:17.103Z,607.5
2019-04-27T14:00:19.563Z,607.8
2019-04-27T14:01:22.003Z,607.6
2019-04-27T14:03:29.402Z,607.7
2019-04-27T14:04:31.833Z,607.2
2019-04-27T14:05:34.276Z,608.1
2019-04-27T14:06:36.495Z,607.9
2019-04-27T14:08:43.832Z,608.6
2019-04-27T14:09:45.714Z,608.1
2019-04-27T14:10:47.910Z,608.9
2019-04-27T14:11:50.347Z,608.6
2019-04-27T14:12:52.878Z,608.5
2019-04-27T14:13:55.327Z,608.9
2019-04-27T14:14:59.565Z,608.9
2019-04-27T14:16:01.737Z,609.1
2019-04-27T14:17:03.871Z,608.8
2019-04-27T14:18:08.125Z,608.9
2019-04-27T14:20:15.552Z,608.9
2019-04-27T14:21:17.713Z,608.8
2019-04-27T14:22:20.297Z,609
2019-04-27T14:23:22.729Z,609.4
2019-04-27T14:25:29.904Z,608.8
2019-04-27T14:26:32.318Z,608.8
2019-04-27T14:28:40.432Z,609.3
2019-04-27T14:29:42.859Z,609.4
2019-04-27T14:30:45.293Z,609.4
2019-04-27T14:31:50.792Z,609.7
2019-04-27T14:32:52.956Z,610.5
2019-04-27T14:33:55.795Z,610.2
2019-04-27T14:35:00.164Z,610.2
2019-04-27T14:36:02.369Z,610.1
2019-04-27T14:37:04.806Z,608.7
2019-04-27T14:38:08.969Z,610.3
2019-04-27T14:39:11.281Z,610.1
2019-04-27T14:40:13.713Z,610.1
2019-04-27T14:41:15.879Z,610
2019-04-27T14:42:20.191Z,610.6
2019-04-27T14:43:22.624Z,609.5
2019-04-27T14:44:25.186Z,610.3
2019-04-27T14:45:29.564Z,610.5
2019-04-27T14:46:32.234Z,610.7
2019-04-27T14:47:34.398Z,611.1
2019-04-27T14:48:36.553Z,610.7
2019-04-27T14:49:40.724Z,611.2
2019-04-27T14:50:42.908Z,611.6
2019-04-27T14:51:45.353Z,611.1
2019-04-27T14:52:49.605Z,610.9
2019-04-27T14:53:52.034Z,611.7
2019-04-27T14:54:54.012Z,611.6
2019-04-27T14:55:58.227Z,611.6
2019-04-27T14:57:00.681Z,611.6
2019-04-27T14:58:03.112Z,611.3
2019-04-27T14:59:05.550Z,611.9
2019-04-27T15:00:07.709Z,611.6
2019-04-27T15:01:09.966Z,611.6
2019-04-27T15:02:12.382Z,611.6
2019-04-27T15:03:14.617Z,611.6
2019-04-27T15:04:16.796Z,611.5
2019-04-27T15:05:19.238Z,612.7
2019-04-27T15:06:25.314Z,612.2
2019-04-27T15:07:27.381Z,612.6
2019-04-27T15:08:29.829Z,612.8
2019-04-27T15:09:31.984Z,612.4
2019-04-27T15:11:39.131Z,612.6
2019-04-27T15:12:41.578Z,612.6
2019-04-27T15:15:57.066Z,612.3
2019-04-27T15:17:04.604Z,612.7
2019-04-27T15:18:07.018Z,612.9
2019-04-27T15:19:13.127Z,613.1
2019-04-27T15:20:16.056Z,613.6
2019-04-27T15:21:20.663Z,613